createdAt,value
2022-08-28T00:00:16.205Z,19.22
2022-08-28T00:01:19.329Z,19.28
2022-08-28T00:02:23.140Z,19.29
2022-08-28T00:03:25.711Z,19.36
2022-08-28T00:04:28.108Z,19.39
2022-08-28T00:05:32.262Z,19.36
2022-08-28T00:06:34.575Z,19.29
2022-08-28T00:07:37.509Z,19.28
2022-08-28T00:08:39.817Z,19.27
2022-08-28T00:09:42.291Z,19.22
2022-08-28T00:10:45.332Z,19.18
2022-08-28T00:11:48.312Z,19.13
2022-08-28T00:12:52.845Z,19.20
2022-08-28T00:13:56.778Z,19.18
2022-08-28T00:14:59.441Z,19.15
2022-08-28T00:16:01.971Z,19.10
2022-08-28T00:17:05.042Z,19.00
2022-08-28T00:18:08.628Z,18.89
2022-08-28T00:19:11.076Z,18.93
2022-08-28T00:20:15.142Z,19.06
2022-08-28T00:21:17.448Z,19.08
2022-08-28T00:22:20.178Z,19.10
2022-08-28T00:23:24.779Z,19.05
2022-08-28T00:24:30.773Z,19.08
2022-08-28T00:25:34.001Z,19.06
2022-08-28T00:26:55.432Z,19.11
2022-08-28T00:28:00.554Z,19.13
2022-08-28T00:29:07.973Z,19.09
2022-08-28T00:30:10.429Z,19.02
2022-08-28T00:31:13.140Z,19.06
2022-08-28T00:32:15.666Z,19.03
2022-08-28T00:33:29.899Z,19.09
2022-08-28T00:34:33.804Z,19.07
2022-08-28T00:35:36.331Z,19.02
2022-08-28T00:36:41.101Z,18.99
2022-08-28T00:37:44.513Z,19.01
2022-08-28T00:38:50.484Z,18.99
2022-08-28T00:39:53.031Z,18.97
2022-08-28T00:40:59.347Z,19.02
2022-08-28T00:42:01.694Z,19.01
2022-08-28T00:43:06.695Z,19.00
2022-08-28T00:44:21.542Z,19.00
2022-08-28T00:45:25.566Z,18.91
2022-08-28T00:46:28.051Z,18.71
2022-08-28T00:47:30.317Z,18.76
2022-08-28T00:48:32.884Z,18.72
2022-08-28T00:49:40.473Z,18.77
2022-08-28T00:51:01.319Z,18.82
2022-08-28T00:52:11.788Z,18.72
2022-08-28T00:53:14.666Z,18.61
2022-08-28T00:54:19.292Z,18.65
2022-08-28T00:55:25.548Z,18.73
2022-08-28T00:56:30.215Z,18.77
2022-08-28T00:57:40.820Z,18.79
2022-08-28T00:58:46.581Z,18.76
2022-08-28T00:59:48.861Z,18.80
2022-08-28T01:00:52.935Z,18.81
2022-08-28T01:01:57.523Z,18.83
2022-08-28T01:03:00.231Z,18.75
2022-08-28T01:04:06.102Z,18.78
2022-08-28T01:05:09.752Z,18.78
2022-08-28T01:06:16.304Z,18.82
2022-08-28T01:07:19.273Z,18.82
2022-08-28T01:08:21.596Z,18.84
2022-08-28T01:09:28.415Z,18.83
2022-08-28T01:10:33.076Z,18.85
2022-08-28T01:11:35.596Z,18.74
2022-08-28T01:12:38.596Z,18.57
2022-08-28T01:13:48.556Z,18.56
2022-08-28T01:14:53.498Z,18.52
2022-08-28T01:15:58.104Z,18.42
2022-08-28T01:17:00.570Z,18.35
2022-08-28T01:18:08.423Z,18.31
2022-08-28T01:19:19.028Z,18.38
2022-08-28T01:20:25.726Z,18.44
2022-08-28T01:21:33.321Z,18.55
2022-08-28T01:22:38.148Z,18.57
2022-08-28T01:24:06.838Z,18.60
2022-08-28T01:25:13.428Z,18.58
2022-08-28T01:26:15.780Z,18.58
2022-08-28T01:27:18.191Z,18.57
2022-08-28T01:28:20.757Z,18.53
2022-08-28T01:29:23.089Z,18.55
2022-08-28T01:30:25.467Z,18.60
2022-08-28T01:31:31.723Z,18.52
2022-08-28T01:32:41.856Z,18.33
2022-08-28T01:33:46.178Z,18.37
2022-08-28T01:34:48.433Z,18.44
2022-08-28T01:35:50.719Z,18.53
2022-08-28T01:36:52.970Z,18.55
2022-08-28T01:37:56.007Z,18.56
2022-08-28T01:39:07.565Z,18.53
2022-08-28T01:40:14.159Z,18.41
2022-08-28T01:41:16.589Z,18.31
2022-08-28T01:42:18.979Z,18.28
2022-08-28T01:43:23.697Z,18.30
2022-08-28T01:44:27.734Z,18.31
2022-08-28T01:45:31.391Z,18.30
2022-08-28T01:46:33.963Z,18.29
2022-08-28T01:47:36.853Z,18.27
2022-08-28T01:48:42.580Z,18.23
2022-08-28T01:49:45.207Z,18.15
2022-08-28T01:50:48.123Z,18.12
2022-08-28T01:51:50.529Z,18.12
2022-08-28T01:52:54.620Z,18.01
2022-08-28T01:53:56.914Z,18.11
2022-08-28T01:54:59.515Z,18.20
2022-08-28T01:56:05.142Z,18.32
2022-08-28T01:57:07.536Z,18.41
2022-08-28T01:58:11.027Z,18.42
2022-08-28T01:59:14.183Z,18.28
2022-08-28T02:00:18.102Z,18.31
2022-08-28T02:01:21.598Z,18.34
2022-08-28T02:02:24.152Z,18.33
2022-08-28T02:03:26.843Z,18.35
2022-08-28T02:04:31.733Z,18.36
2022-08-28T02:05:35.658Z,18.39
2022-08-28T02:06:38.283Z,18.45
2022-08-28T02:07:40.524Z,18.39
2022-08-28T02:08:42.781Z,18.47
2022-08-28T02:09:45.377Z,18.48
2022-08-28T02:10:49.012Z,18.50
2022-08-28T02:11:51.513Z,18.50
2022-08-28T02:12:55.537Z,18.48
2022-08-28T02:14:01.575Z,18.53
2022-08-28T02:15:08.177Z,18.52
2022-08-28T02:16:11.055Z,18.48
2022-08-28T02:17:13.563Z,18.47
2022-08-28T02:18:15.776Z,18.44
2022-08-28T02:19:18.123Z,18.42
2022-08-28T02:20:21.135Z,18.40
2022-08-28T02:21:24.374Z,18.38
2022-08-28T02:22:27.141Z,18.27
2022-08-28T02:23:29.424Z,18.29
2022-08-28T02:24:31.679Z,18.15
2022-08-28T02:25:34.246Z,18.14
2022-08-28T02:26:36.636Z,18.07
2022-08-28T02:27:39.133Z,18.08
2022-08-28T02:28:42.288Z,18.03
2022-08-28T02:29:44.604Z,18.00
2022-08-28T02:30:46.932Z,17.95
2022-08-28T02:31:49.220Z,17.94
2022-08-28T02:32:51.665Z,17.97
2022-08-28T02:33:54.203Z,18.00
2022-08-28T02:34:57.723Z,18.04
2022-08-28T02:35:59.988Z,18.08
2022-08-28T02:37:02.751Z,18.14
2022-08-28T02:38:05.017Z,18.23
2022-08-28T02:39:07.618Z,18.24
2022-08-28T02:40:11.573Z,18.22
2022-08-28T02:41:14.106Z,18.20
2022-08-28T02:42:16.661Z,18.17
2022-08-28T02:43:21.611Z,18.02
2022-08-28T02:44:23.830Z,18.09
2022-08-28T02:45:26.078Z,18.09
2022-08-28T02:46:28.493Z,18.12
2022-08-28T02:47:31.797Z,18.18
2022-08-28T02:48:38.010Z,18.21
2022-08-28T02:49:40.423Z,18.24
2022-08-28T02:50:42.703Z,18.25
2022-08-28T02:51:45.168Z,18.24
2022-08-28T02:52:47.535Z,18.29
2022-08-28T02:53:50.516Z,18.28
2022-08-28T02:54:52.803Z,18.17
2022-08-28T02:55:55.392Z,18.18
2022-08-28T02:56:58.554Z,18.19
2022-08-28T02:58:00.915Z,18.24
2022-08-28T02:59:03.334Z,18.18
2022-08-28T03:00:09.941Z,18.21
2022-08-28T03:01:13.448Z,18.23
2022-08-28T03:02:15.871Z,18.19
2022-08-28T03:03:18.177Z,18.14
2022-08-28T03:04:20.597Z,18.19
2022-08-28T03:05:25.273Z,18.08
2022-08-28T03:06:27.500Z,17.98
2022-08-28T03:07:29.806Z,17.75
2022-08-28T03:08:32.738Z,17.74
2022-08-28T03:09:35.215Z,17.65
2022-08-28T03:10:38.559Z,17.62
2022-08-28T03:11:41.190Z,17.57
2022-08-28T03:12:43.455Z,17.75
2022-08-28T03:13:45.782Z,17.78
2022-08-28T03:14:47.987Z,17.79
2022-08-28T03:15:52.014Z,17.87
2022-08-28T03:16:58.002Z,17.97
2022-08-28T03:18:00.325Z,17.96
2022-08-28T03:19:03.364Z,17.97
2022-08-28T03:20:08.511Z,17.95
2022-08-28T03:21:11.417Z,17.91
2022-08-28T03:22:13.697Z,17.86
2022-08-28T03:23:28.203Z,17.71
2022-08-28T03:24:30.534Z,17.80
2022-08-28T03:25:33.167Z,17.76
2022-08-28T03:26:35.512Z,17.81
2022-08-28T03:27:39.100Z,17.81
2022-08-28T03:28:50.937Z,17.78
2022-08-28T03:29:53.182Z,17.85
2022-08-28T03:30:55.529Z,17.83
2022-08-28T03:31:57.785Z,17.83
2022-08-28T03:33:01.063Z,17.85
2022-08-28T03:34:04.185Z,17.80
2022-08-28T03:35:07.054Z,17.79
2022-08-28T03:36:11.047Z,17.75
2022-08-28T03:37:13.691Z,17.81
2022-08-28T03:38:17.080Z,17.87
2022-08-28T03:39:19.570Z,17.92
2022-08-28T03:40:22.058Z,17.89
2022-08-28T03:41:26.875Z,17.88
2022-08-28T03:42:29.084Z,17.93
2022-08-28T03:43:31.462Z,17.91
2022-08-28T03:44:33.723Z,17.89
2022-08-28T03:45:36.043Z,17.90
2022-08-28T03:46:38.833Z,17.88
2022-08-28T03:47:42.049Z,17.99
2022-08-28T03:48:46.235Z,17.96
2022-08-28T03:49:55.568Z,17.88
2022-08-28T03:50:59.768Z,17.96
2022-08-28T03:52:02.259Z,17.99
2022-08-28T03:53:04.521Z,17.96
2022-08-28T03:54:06.923Z,18.01
2022-08-28T03:55:12.378Z,18.10
2022-08-28T03:56:21.652Z,17.99
2022-08-28T03:57:24.200Z,18.05
2022-08-28T03:58:26.749Z,17.98
2022-08-28T03:59:31.659Z,17.95
2022-08-28T04:00:36.384Z,17.94
2022-08-28T04:01:38.780Z,17.85
2022-08-28T04:02:41.722Z,17.81
2022-08-28T04:03:44.740Z,17.81
2022-08-28T04:04:48.964Z,17.90
2022-08-28T04:05:51.776Z,17.87
2022-08-28T04:06:54.270Z,17.90
2022-08-28T04:07:56.524Z,17.87
2022-08-28T04:09:00.239Z,17.94
2022-08-28T04:10:04.214Z,17.90
2022-08-28T04:11:06.675Z,17.97
2022-08-28T04:12:10.237Z,17.96
2022-08-28T04:13:14.505Z,18.00
2022-08-28T04:14:16.730Z,18.04
2022-08-28T04:15:20.324Z,18.07
2022-08-28T04:16:22.643Z,18.03
2022-08-28T04:17:25.417Z,17.97
2022-08-28T04:18:29.660Z,18.00
2022-08-28T04:19:32.128Z,17.96
2022-08-28T04:20:34.378Z,17.90
2022-08-28T04:21:36.798Z,17.89
2022-08-28T04:22:39.480Z,17.88
2022-08-28T04:23:43.242Z,17.95
2022-08-28T04:24:45.452Z,17.99
2022-08-28T04:25:47.723Z,18.11
2022-08-28T04:26:50.568Z,18.30
2022-08-28T04:27:52.816Z,18.40
2022-08-28T04:28:56.051Z,18.36
2022-08-28T04:29:59.120Z,18.20
2022-08-28T04:31:01.708Z,18.31
2022-08-28T04:32:04.159Z,18.35
2022-08-28T04:33:06.416Z,18.45
2022-08-28T04:34:10.870Z,18.34
2022-08-28T04:35:14.311Z,18.34
2022-08-28T04:36:17.628Z,18.33
2022-08-28T04:37:20.155Z,18.26
2022-08-28T04:38:25.043Z,18.20
2022-08-28T04:39:27.325Z,18.10
2022-08-28T04:40:30.113Z,17.99
2022-08-28T04:41:32.536Z,18.01
2022-08-28T04:42:34.845Z,18.02
2022-08-28T04:43:37.485Z,17.93
2022-08-28T04:44:39.782Z,17.88
2022-08-28T04:45:45.821Z,17.78
2022-08-28T04:46:48.291Z,17.69
2022-08-28T04:47:52.038Z,17.70
2022-08-28T04:48:55.558Z,17.60
2022-08-28T04:49:57.898Z,17.57
2022-08-28T04:51:00.169Z,17.55
2022-08-28T04:52:03.007Z,17.57
2022-08-28T04:53:05.276Z,17.49
2022-08-28T04:54:08.153Z,17.54
2022-08-28T04:55:10.840Z,17.55
2022-08-28T04:56:14.637Z,17.48
2022-08-28T04:57:16.896Z,17.50
2022-08-28T04:58:20.223Z,17.44
2022-08-28T04:59:27.387Z,17.52
2022-08-28T05:00:29.637Z,17.50
2022-08-28T05:01:32.316Z,17.63
2022-08-28T05:02:34.749Z,17.64
2022-08-28T05:03:37.332Z,17.63
2022-08-28T05:04:39.924Z,17.67
2022-08-28T05:05:52.686Z,17.81
2022-08-28T05:06:54.971Z,17.87
2022-08-28T05:07:57.256Z,17.90
2022-08-28T05:09:02.084Z,17.82
2022-08-28T05:10:04.906Z,17.93
2022-08-28T05:11:13.739Z,17.81
2022-08-28T05:12:29.613Z,17.85
2022-08-28T05:13:31.949Z,17.82
2022-08-28T05:14:35.466Z,17.90
2022-08-28T05:15:42.467Z,17.88
2022-08-28T05:16:52.702Z,17.83
2022-08-28T05:17:55.056Z,17.87
2022-08-28T05:19:00.668Z,17.95
2022-08-28T05:20:03.921Z,17.94
2022-08-28T05:21:14.414Z,18.05
2022-08-28T05:22:16.907Z,18.07
2022-08-28T05:23:19.169Z,18.11
2022-08-28T05:24:25.584Z,18.07
2022-08-28T05:25:27.860Z,18.17
2022-08-28T05:26:30.338Z,18.25
2022-08-28T05:27:32.659Z,18.36
2022-08-28T05:28:34.966Z,18.46
2022-08-28T05:29:37.295Z,18.56
2022-08-28T05:30:41.818Z,18.62
2022-08-28T05:31:44.685Z,18.69
2022-08-28T05:32:48.765Z,18.69
2022-08-28T05:33:52.754Z,18.62
2022-08-28T05:34:55.138Z,18.68
2022-08-28T05:35:57.421Z,18.67
2022-08-28T05:36:59.712Z,18.78
2022-08-28T05:38:01.908Z,18.81
2022-08-28T05:39:07.666Z,18.80
2022-08-28T05:40:10.590Z,18.83
2022-08-28T05:41:20.607Z,18.87
2022-08-28T05:42:22.853Z,18.86
2022-08-28T05:43:31.616Z,18.87
2022-08-28T05:44:34.342Z,18.85
2022-08-28T05:45:36.854Z,18.85
2022-08-28T05:46:41.458Z,18.83
2022-08-28T05:47:43.892Z,18.82
2022-08-28T05:48:48.535Z,18.83
2022-08-28T05:49:50.853Z,18.88
2022-08-28T05:50:54.618Z,18.87
2022-08-28T05:51:56.973Z,18.93
2022-08-28T05:52:59.319Z,18.87
2022-08-28T05:54:02.344Z,18.72
2022-08-28T05:55:05.283Z,18.70
2022-08-28T05:56:12.537Z,18.78
2022-08-28T05:57:14.845Z,18.87
2022-08-28T05:58:29.356Z,18.92
2022-08-28T05:59:31.649Z,18.63
2022-08-28T06:00:33.992Z,18.54
2022-08-28T06:01:40.907Z,18.41
2022-08-28T06:02:44.848Z,18.25
2022-08-28T06:03:55.157Z,18.25
2022-08-28T06:04:57.752Z,18.30
2022-08-28T06:06:00.605Z,18.16
2022-08-28T06:07:04.900Z,18.24
2022-08-28T06:08:08.151Z,18.10
2022-08-28T06:09:16.276Z,18.31
2022-08-28T06:10:18.624Z,18.32
2022-08-28T06:11:22.108Z,18.23
2022-08-28T06:12:28.893Z,18.24
2022-08-28T06:13:32.604Z,18.11
2022-08-28T06:14:37.191Z,18.22
2022-08-28T06:15:45.691Z,18.29
2022-08-28T06:16:52.521Z,18.19
2022-08-28T06:17:55.652Z,18.22
2022-08-28T06:18:58.334Z,18.02
2022-08-28T06:20:01.300Z,18.15
2022-08-28T06:21:04.481Z,18.14
2022-08-28T06:22:07.809Z,18.21
2022-08-28T06:23:13.674Z,18.11
2022-08-28T06:24:16.764Z,18.14
2022-08-28T06:25:19.488Z,18.24
2022-08-28T06:26:22.951Z,18.32
2022-08-28T06:27:28.877Z,18.36
2022-08-28T06:28:31.527Z,18.29
2022-08-28T06:29:34.027Z,18.34
2022-08-28T06:30:37.211Z,18.31
2022-08-28T06:31:42.807Z,18.31
2022-08-28T06:32:48.023Z,18.41
2022-08-28T06:33:50.373Z,18.48
2022-08-28T06:34:52.771Z,18.36
2022-08-28T06:35:56.457Z,18.45
2022-08-28T06:36:58.867Z,18.46
2022-08-28T06:38:02.932Z,18.67
2022-08-28T06:39:07.090Z,18.74
2022-08-28T06:40:10.098Z,18.90
2022-08-28T06:41:13.658Z,19.05
2022-08-28T06:42:15.993Z,19.03
2022-08-28T06:43:20.092Z,19.01
2022-08-28T06:44:22.987Z,19.08
2022-08-28T06:45:25.353Z,18.88
2022-08-28T06:46:30.374Z,18.86
2022-08-28T06:47:32.809Z,18.96
2022-08-28T06:48:35.158Z,18.99
2022-08-28T06:49:37.661Z,18.91
2022-08-28T06:50:41.931Z,19.16
2022-08-28T06:51:44.250Z,19.27
2022-08-28T06:52:46.783Z,19.25
2022-08-28T06:53:49.335Z,19.09
2022-08-28T06:54:55.727Z,19.10
2022-08-28T06:56:07.249Z,19.17
2022-08-28T06:57:09.914Z,19.22
2022-08-28T06:58:13.190Z,19.03
2022-08-28T06:59:15.644Z,19.24
2022-08-28T07:00:18.256Z,19.18
2022-08-28T07:01:33.263Z,19.13
2022-08-28T07:02:35.786Z,19.25
2022-08-28T07:03:44.125Z,19.52
2022-08-28T07:04:51.074Z,19.52
2022-08-28T07:05:58.209Z,19.53
2022-08-28T07:07:00.564Z,19.56
2022-08-28T07:08:03.157Z,19.54
2022-08-28T07:09:08.052Z,19.65
2022-08-28T07:10:10.574Z,19.66
2022-08-28T07:11:15.000Z,19.72
2022-08-28T07:12:18.290Z,19.71
2022-08-28T07:13:22.055Z,19.47
2022-08-28T07:14:26.257Z,19.43
2022-08-28T07:15:29.391Z,19.36
2022-08-28T07:16:38.215Z,19.00
2022-08-28T07:17:40.793Z,19.08
2022-08-28T07:18:44.894Z,19.16
2022-08-28T07:19:47.457Z,19.33
2022-08-28T07:21:00.616Z,19.27
2022-08-28T07:22:04.751Z,19.54
2022-08-28T07:23:07.641Z,20.01
2022-08-28T07:24:12.896Z,20.18
2022-08-28T07:25:15.327Z,20.18
2022-08-28T07:26:22.520Z,20.50
2022-08-28T07:27:25.356Z,20.22
2022-08-28T07:28:27.693Z,20.20
2022-08-28T07:29:30.028Z,20.37
2022-08-28T07:30:32.519Z,20.57
2022-08-28T07:31:35.018Z,20.58
2022-08-28T07:32:37.414Z,20.80
2022-08-28T07:33:41.187Z,20.40
2022-08-28T07:34:43.752Z,20.09
2022-08-28T07:35:47.111Z,20.34
2022-08-28T07:36:52.457Z,20.34
2022-08-28T07:37:54.810Z,20.35
2022-08-28T07:39:00.209Z,20.37
2022-08-28T07:40:02.855Z,19.99
2022-08-28T07:41:17.014Z,20.11
2022-08-28T07:42:38.376Z,20.19
2022-08-28T07:43:59.770Z,20.16
2022-08-28T07:45:02.773Z,19.68
2022-08-28T07:46:08.911Z,19.84
2022-08-28T07:47:11.732Z,20.10
2022-08-28T07:48:15.169Z,20.26
2022-08-28T07:49:18.395Z,20.37
2022-08-28T07:50:21.048Z,20.05
2022-08-28T07:51:23.439Z,19.99
2022-08-28T07:52:29.455Z,20.09
2022-08-28T07:53:36.245Z,20.16
2022-08-28T07:54:40.446Z,20.26
2022-08-28T07:55:42.981Z,20.31
2022-08-28T07:56:46.278Z,20.81
2022-08-28T07:57:49.953Z,21.10
2022-08-28T07:58:54.142Z,21.11
2022-08-28T07:59:56.706Z,21.10
2022-08-28T08:00:59.805Z,21.14
2022-08-28T08:02:03.444Z,21.02
2022-08-28T08:03:05.886Z,21.09
2022-08-28T08:04:10.970Z,20.46
2022-08-28T08:05:14.499Z,20.24
2022-08-28T08:06:17.375Z,20.10
2022-08-28T08:07:20.478Z,20.39
2022-08-28T08:08:23.095Z,20.29
2022-08-28T08:09:26.358Z,20.39
2022-08-28T08:10:33.866Z,20.32
2022-08-28T08:11:36.909Z,20.43
2022-08-28T08:12:39.228Z,20.24
2022-08-28T08:13:41.550Z,20.12
2022-08-28T08:14:44.311Z,20.24
2022-08-28T08:15:46.734Z,20.45
2022-08-28T08:16:49.570Z,20.70
2022-08-28T08:17:52.050Z,20.94
2022-08-28T08:18:54.485Z,20.70
2022-08-28T08:19:56.864Z,20.85
2022-08-28T08:21:00.557Z,21.01
2022-08-28T08:22:02.915Z,21.13
2022-08-28T08:23:05.218Z,21.53
2022-08-28T08:24:07.829Z,21.64
2022-08-28T08:25:11.426Z,20.86
2022-08-28T08:26:17.486Z,20.60
2022-08-28T08:27:20.014Z,20.34
2022-08-28T08:28:22.445Z,20.34
2022-08-28T08:29:25.171Z,20.80
2022-08-28T08:30:27.479Z,21.31
2022-08-28T08:31:33.156Z,21.42
2022-08-28T08:32:35.579Z,21.55
2022-08-28T08:33:40.312Z,21.72
2022-08-28T08:34:45.901Z,21.65
2022-08-28T08:35:48.367Z,21.77
2022-08-28T08:36:50.737Z,21.74
2022-08-28T08:37:53.152Z,21.88
2022-08-28T08:38:59.577Z,21.89
2022-08-28T08:40:02.692Z,22.03
2022-08-28T08:41:25.252Z,21.89
2022-08-28T08:42:33.145Z,21.81
2022-08-28T08:44:05.305Z,21.76
2022-08-28T08:45:12.684Z,21.92
2022-08-28T08:46:15.083Z,22.02
2022-08-28T08:47:22.939Z,21.99
2022-08-28T08:48:27.660Z,22.00
2022-08-28T08:49:34.682Z,22.09
2022-08-28T08:50:37.085Z,22.04
2022-08-28T08:51:46.642Z,21.78
2022-08-28T08:53:13.767Z,21.22
2022-08-28T08:54:20.017Z,21.14
2022-08-28T08:55:31.416Z,21.63
2022-08-28T08:56:34.653Z,22.11
2022-08-28T08:57:39.052Z,22.42
2022-08-28T08:58:44.800Z,22.51
2022-08-28T08:59:47.390Z,22.70
2022-08-28T09:00:56.666Z,22.61
2022-08-28T09:02:12.397Z,21.77
2022-08-28T09:03:24.040Z,21.49
2022-08-28T09:04:43.317Z,21.29
2022-08-28T09:05:55.106Z,21.37
2022-08-28T09:07:17.658Z,22.02
2022-08-28T09:08:34.900Z,22.34
2022-08-28T09:09:42.347Z,22.12
2022-08-28T09:10:54.628Z,22.46
2022-08-28T09:12:03.221Z,22.21
2022-08-28T09:13:33.995Z,21.74
2022-08-28T09:14:48.423Z,21.70
2022-08-28T09:15:51.147Z,21.76
2022-08-28T09:16:53.672Z,21.45
2022-08-28T09:18:12.427Z,21.59
2022-08-28T09:19:22.020Z,21.78
2022-08-28T09:20:32.889Z,22.33
2022-08-28T09:21:41.593Z,22.85
2022-08-28T09:22:47.286Z,22.37
2022-08-28T09:23:53.323Z,22.37
2022-08-28T09:24:55.837Z,22.10
2022-08-28T09:26:05.968Z,21.71
2022-08-28T09:27:25.462Z,21.93
2022-08-28T09:28:34.978Z,22.23
2022-08-28T09:29:42.856Z,22.33
2022-08-28T09:30:54.518Z,22.51
2022-08-28T09:31:57.769Z,22.63
2022-08-28T09:33:01.350Z,22.61
2022-08-28T09:34:24.170Z,22.44
2022-08-28T09:35:31.348Z,22.15
2022-08-28T09:36:36.664Z,22.07
2022-08-28T09:37:41.439Z,22.20
2022-08-28T09:38:43.849Z,22.52
2022-08-28T09:39:48.895Z,22.71
2022-08-28T09:41:28.302Z,22.78
2022-08-28T09:42:49.323Z,22.78
2022-08-28T09:43:52.438Z,22.13
2022-08-28T09:44:58.090Z,22.00
2022-08-28T09:46:45.055Z,22.06
2022-08-28T09:48:02.976Z,22.48
2022-08-28T09:49:12.529Z,22.52
2022-08-28T09:50:42.534Z,23.00
2022-08-28T09:51:45.195Z,23.71
2022-08-28T09:52:48.958Z,23.78
2022-08-28T09:53:51.112Z,23.39
2022-08-28T09:54:54.962Z,24.30
2022-08-28T09:56:10.859Z,24.51
2022-08-28T09:57:13.115Z,23.54
2022-08-28T09:58:15.720Z,23.22
2022-08-28T09:59:20.968Z,23.87
2022-08-28T10:00:23.497Z,24.25
2022-08-28T10:01:34.531Z,24.24
2022-08-28T10:02:53.817Z,24.05
2022-08-28T10:04:27.656Z,24.64
2022-08-28T10:05:50.246Z,23.91
2022-08-28T10:07:16.120Z,23.92
2022-08-28T10:08:32.498Z,23.96
2022-08-28T10:09:55.978Z,23.93
2022-08-28T10:11:07.423Z,23.97
2022-08-28T10:12:43.946Z,24.01
2022-08-28T10:14:13.600Z,23.25
2022-08-28T10:15:46.774Z,23.12
2022-08-28T10:16:59.777Z,23.55
2022-08-28T10:18:17.914Z,23.85
2022-08-28T10:19:41.760Z,23.75
2022-08-28T10:21:01.064Z,24.94
2022-08-28T10:22:25.497Z,24.96
2022-08-28T10:23:44.967Z,24.51
2022-08-28T10:25:14.770Z,24.60
2022-08-28T10:26:48.694Z,26.09
2022-08-28T10:28:13.479Z,26.46
2022-08-28T10:29:32.444Z,26.90
2022-08-28T10:30:41.785Z,26.25
2022-08-28T10:32:05.717Z,25.17
2022-08-28T10:33:10.792Z,24.45
2022-08-28T10:34:31.960Z,24.07
2022-08-28T10:36:00.447Z,24.50
2022-08-28T10:37:34.136Z,23.61
2022-08-28T10:38:46.292Z,23.90
2022-08-28T10:39:57.662Z,23.76
2022-08-28T10:41:06.196Z,24.24
2022-08-28T10:42:09.060Z,24.64
2022-08-28T10:43:19.333Z,24.83
2022-08-28T10:44:33.544Z,25.13
2022-08-28T10:45:39.027Z,24.52
2022-08-28T10:46:49.053Z,23.95
2022-08-28T10:48:07.042Z,23.76
2022-08-28T10:49:28.935Z,23.35
2022-08-28T10:51:02.289Z,23.57
2022-08-28T10:52:10.684Z,24.30
2022-08-28T10:53:18.345Z,24.67
2022-08-28T10:54:41.467Z,24.88
2022-08-28T10:55:54.110Z,24.66
2022-08-28T10:57:06.734Z,24.81
2022-08-28T10:58:24.469Z,25.61
2022-08-28T10:59:32.721Z,25.93
2022-08-28T11:00:40.118Z,25.54
2022-08-28T11:01:43.477Z,25.59
2022-08-28T11:02:51.545Z,25.43
2022-08-28T11:03:56.597Z,25.20
2022-08-28T11:04:59.300Z,25.46
2022-08-28T11:06:19.449Z,26.09
2022-08-28T11:07:47.656Z,24.47
2022-08-28T11:08:57.398Z,23.99
2022-08-28T11:10:41.741Z,23.55
2022-08-28T11:11:48.619Z,23.56
2022-08-28T11:12:52.667Z,23.53
2022-08-28T11:13:59.592Z,23.12
2022-08-28T11:15:21.792Z,22.82
2022-08-28T11:16:24.148Z,22.91
2022-08-28T11:17:27.698Z,23.15
2022-08-28T11:18:49.638Z,23.48
2022-08-28T11:20:29.408Z,23.63
2022-08-28T11:21:47.599Z,24.80
2022-08-28T11:22:55.562Z,25.54
2022-08-28T11:24:07.488Z,25.88
2022-08-28T11:25:43.670Z,25.87
2022-08-28T11:26:59.620Z,25.65
2022-08-28T11:28:27.101Z,25.15
2022-08-28T11:30:00.293Z,24.52
2022-08-28T11:31:05.468Z,24.64
2022-08-28T11:32:52.360Z,24.27
2022-08-28T11:33:56.049Z,24.49
2022-08-28T11:35:01.853Z,24.70
2022-08-28T11:36:10.057Z,24.66
2022-08-28T11:37:37.826Z,25.11
2022-08-28T11:38:42.702Z,25.07
2022-08-28T11:39:45.267Z,24.96
2022-08-28T11:40:47.475Z,24.24
2022-08-28T11:42:11.305Z,24.91
2022-08-28T11:43:16.730Z,24.75
2022-08-28T11:44:28.017Z,25.04
2022-08-28T11:45:59.501Z,25.15
2022-08-28T11:47:41.739Z,25.14
2022-08-28T11:48:53.363Z,24.90
2022-08-28T11:50:23.926Z,24.88
2022-08-28T11:51:39.441Z,25.65
2022-08-28T11:53:19.252Z,26.27
2022-08-28T11:54:30.542Z,26.59
2022-08-28T11:55:58.374Z,27.12
2022-08-28T11:57:22.468Z,26.85
2022-08-28T11:58:37.849Z,26.97
2022-08-28T11:59:55.966Z,25.83
2022-08-28T12:01:09.283Z,25.56
2022-08-28T12:02:40.303Z,26.62
2022-08-28T12:03:54.055Z,27.35
2022-08-28T12:04:56.634Z,27.24
2022-08-28T12:06:00.700Z,27.02
2022-08-28T12:07:11.778Z,27.00
2022-08-28T12:08:51.194Z,26.87
2022-08-28T12:09:53.600Z,25.74
2022-08-28T12:10:58.880Z,25.29
2022-08-28T12:12:21.519Z,25.29
2022-08-28T12:13:46.838Z,25.43
2022-08-28T12:14:55.281Z,25.78
2022-08-28T12:16:06.858Z,25.81
2022-08-28T12:17:16.033Z,25.73
2022-08-28T12:18:40.415Z,25.84
2022-08-28T12:19:54.645Z,25.45
2022-08-28T12:21:04.343Z,25.42
2022-08-28T12:22:47.389Z,25.68
2022-08-28T12:24:09.805Z,26.35
2022-08-28T12:25:32.801Z,26.54
2022-08-28T12:26:39.853Z,26.27
2022-08-28T12:27:42.908Z,25.92
2022-08-28T12:29:03.431Z,25.69
2022-08-28T12:30:06.443Z,25.48
2022-08-28T12:31:08.914Z,25.37
2022-08-28T12:32:33.130Z,25.43
2022-08-28T12:33:46.590Z,25.29
2022-08-28T12:34:57.657Z,25.53
2022-08-28T12:36:05.916Z,26.27
2022-08-28T12:37:25.598Z,25.57
2022-08-28T12:38:31.431Z,25.40
2022-08-28T12:39:34.549Z,25.41
2022-08-28T12:40:37.618Z,25.15
2022-08-28T12:41:43.942Z,24.97
2022-08-28T12:42:54.549Z,25.20
2022-08-28T12:44:09.031Z,25.60
2022-08-28T12:45:20.327Z,25.27
2022-08-28T12:46:28.830Z,26.02
2022-08-28T12:47:32.403Z,26.38
2022-08-28T12:48:59.573Z,26.37
2022-08-28T12:50:28.170Z,26.30
2022-08-28T12:51:33.750Z,25.51
2022-08-28T12:52:36.332Z,25.29
2022-08-28T12:53:49.123Z,25.45
2022-08-28T12:54:55.323Z,25.49
2022-08-28T12:55:58.306Z,25.65
2022-08-28T12:57:05.668Z,25.81
2022-08-28T12:58:35.527Z,25.71
2022-08-28T12:59:41.946Z,25.55
2022-08-28T13:00:53.240Z,26.17
2022-08-28T13:02:06.660Z,26.50
2022-08-28T13:03:09.316Z,26.66
2022-08-28T13:04:38.217Z,26.63
2022-08-28T13:05:41.121Z,27.12
2022-08-28T13:06:43.660Z,27.46
2022-08-28T13:07:49.852Z,27.57
2022-08-28T13:09:00.661Z,27.58
2022-08-28T13:10:22.639Z,27.57
2022-08-28T13:11:25.041Z,27.49
2022-08-28T13:12:55.328Z,27.10
2022-08-28T13:13:59.984Z,26.42
2022-08-28T13:15:02.887Z,26.44
2022-08-28T13:16:10.841Z,26.04
2022-08-28T13:17:15.444Z,25.62
2022-08-28T13:18:36.470Z,25.92
2022-08-28T13:19:38.978Z,26.03
2022-08-28T13:20:41.246Z,25.46
2022-08-28T13:21:46.122Z,25.42
2022-08-28T13:22:50.950Z,25.00
2022-08-28T13:23:58.391Z,24.83
2022-08-28T13:25:03.943Z,25.04
2022-08-28T13:26:07.428Z,25.15
2022-08-28T13:27:12.913Z,25.21
2022-08-28T13:28:19.191Z,25.68
2022-08-28T13:29:23.926Z,26.00
2022-08-28T13:30:31.163Z,26.45
2022-08-28T13:31:36.589Z,26.76
2022-08-28T13:32:40.330Z,26.45
2022-08-28T13:33:42.595Z,26.41
2022-08-28T13:35:07.107Z,25.93
2022-08-28T13:36:22.463Z,25.66
2022-08-28T13:37:48.622Z,25.96
2022-08-28T13:38:51.348Z,26.34
2022-08-28T13:39:53.895Z,26.80
2022-08-28T13:41:03.588Z,26.68
2022-08-28T13:42:11.276Z,26.67
2022-08-28T13:43:15.498Z,26.67
2022-08-28T13:44:35.656Z,26.68
2022-08-28T13:45:43.447Z,27.05
2022-08-28T13:46:46.236Z,26.83
2022-08-28T13:47:48.739Z,27.42
2022-08-28T13:48:51.192Z,27.70
2022-08-28T13:49:53.645Z,26.77
2022-08-28T13:51:03.520Z,27.18
2022-08-28T13:52:09.131Z,26.92
2022-08-28T13:53:12.283Z,26.55
2022-08-28T13:54:15.252Z,26.56
2022-08-28T13:55:18.715Z,26.44
2022-08-28T13:56:23.998Z,26.45
2022-08-28T13:57:27.799Z,26.54
2022-08-28T13:58:30.176Z,26.90
2022-08-28T13:59:32.467Z,26.91
2022-08-28T14:00:40.618Z,26.74
2022-08-28T14:02:03.235Z,26.77
2022-08-28T14:03:23.904Z,26.61
2022-08-28T14:04:26.455Z,26.08
2022-08-28T14:05:28.945Z,26.04
2022-08-28T14:06:31.827Z,26.11
2022-08-28T14:07:34.425Z,26.30
2022-08-28T14:08:37.243Z,26.43
2022-08-28T14:09:40.731Z,25.83
2022-08-28T14:10:44.314Z,25.68
2022-08-28T14:11:48.217Z,25.67
2022-08-28T14:12:50.560Z,25.57
2022-08-28T14:13:55.456Z,25.65
2022-08-28T14:14:58.333Z,25.91
2022-08-28T14:16:05.644Z,26.59
2022-08-28T14:17:09.654Z,26.96
2022-08-28T14:18:11.999Z,27.10
2022-08-28T14:19:14.513Z,27.32
2022-08-28T14:20:17.374Z,27.42
2022-08-28T14:21:19.912Z,27.51
2022-08-28T14:22:22.324Z,27.33
2022-08-28T14:23:24.617Z,27.75
2022-08-28T14:24:27.237Z,27.57